MSR905 HECA-EGLL
Flight info
| Callsign | MSR905 |
|---|---|
| Flight time | N/A |
| Altitude | 32000 |
| Route | CVO L617 NOZ L551 ANTAR DCT NEVRA/N0457F340 DCT TALAS DCT ENFAR DCT AKIKA DCT SOLGU DCT NAVSU DCT SABAD DCT KUBUD DCT GIKUS DCT SOTOV/N0456F360 DCT XEBIX DCT USUDO DCT LUPEN DCT ETINO DCT ABNUR DCT DIMAL DCT ALESO |
| Aircraft | B738/M-SDE2E3FGHIRWXY/LB1 |
Departure
| Time | 2026-04-28 14:37 |
|---|---|
| Airport | Cairo International Airport (HECA) |
Arrival
| Time | N/A |
|---|---|
| Airport | London Heathrow Airport (EGLL) |
| Time | Latitude | Longitude | Altitude | Speed | Heading |
|---|---|---|---|---|---|
| 2026-04-28 14:10 | 30.10639 | 31.39217 | 336 ft | 0 kts | 78° |
| 2026-04-28 14:26 | 30.10637 | 31.39207 | 336 ft | 2 kts | 84° |
| 2026-04-28 14:26 | 30.10634 | 31.39186 | 335 ft | 2 kts | 77° |
| 2026-04-28 14:26 | 30.10631 | 31.39167 | 335 ft | 2 kts | 78° |
| 2026-04-28 14:27 | 30.10631 | 31.39145 | 334 ft | 2 kts | 104° |
| 2026-04-28 14:27 | 30.10638 | 31.39125 | 334 ft | 2 kts | 126° |
| 2026-04-28 14:27 | 30.10649 | 31.39112 | 333 ft | 2 kts | 145° |
| 2026-04-28 14:27 | 30.10662 | 31.39104 | 333 ft | 0 kts | 162° |
| 2026-04-28 14:28 | 30.10668 | 31.39103 | 333 ft | 1 kts | 166° |
| 2026-04-28 14:28 | 30.10670 | 31.39102 | 333 ft | 0 kts | 166° |
| 2026-04-28 14:28 | 30.10669 | 31.39102 | 333 ft | 0 kts | 166° |
| 2026-04-28 14:29 | 30.10657 | 31.39106 | 333 ft | 7 kts | 164° |
| 2026-04-28 14:29 | 30.10559 | 31.39145 | 336 ft | 21 kts | 145° |
| 2026-04-28 14:29 | 30.10561 | 31.39315 | 341 ft | 26 kts | 74° |
| 2026-04-28 14:30 | 30.10618 | 31.39553 | 344 ft | 25 kts | 74° |
| 2026-04-28 14:30 | 30.10605 | 31.39726 | 349 ft | 17 kts | 157° |
| 2026-04-28 14:30 | 30.10550 | 31.39747 | 352 ft | 0 kts | 165° |
| 2026-04-28 14:30 | 30.10555 | 31.39745 | 352 ft | 1 kts | 165° |
| 2026-04-28 14:31 | 30.10556 | 31.39745 | 352 ft | 6 kts | 165° |
| 2026-04-28 14:31 | 30.10499 | 31.39761 | 355 ft | 10 kts | 165° |
| 2026-04-28 14:31 | 30.10401 | 31.39801 | 362 ft | 18 kts | 130° |
| 2026-04-28 14:31 | 30.10478 | 31.39937 | 362 ft | 28 kts | 50° |
| 2026-04-28 14:32 | 30.10622 | 31.40130 | 361 ft | 32 kts | 49° |
| 2026-04-28 14:32 | 30.10770 | 31.40326 | 360 ft | 31 kts | 47° |
| 2026-04-28 14:32 | 30.10912 | 31.40512 | 363 ft | 31 kts | 45° |
| 2026-04-28 14:32 | 30.11030 | 31.40662 | 365 ft | 3 kts | 47° |
| 2026-04-28 14:33 | 30.11037 | 31.40671 | 365 ft | 0 kts | 45° |
| 2026-04-28 14:33 | 30.11041 | 31.40675 | 365 ft | 0 kts | 45° |
| 2026-04-28 14:33 | 30.11045 | 31.40682 | 365 ft | 2 kts | 51° |
| 2026-04-28 14:33 | 30.11081 | 31.40744 | 365 ft | 12 kts | 65° |
| 2026-04-28 14:34 | 30.10978 | 31.40765 | 372 ft | 13 kts | 226° |
| 2026-04-28 14:34 | 30.10854 | 31.40600 | 371 ft | 44 kts | 231° |
| 2026-04-28 14:34 | 30.10645 | 31.40316 | 368 ft | 49 kts | 229° |
| 2026-04-28 14:35 | 30.10421 | 31.40021 | 369 ft | 36 kts | 230° |
| 2026-04-28 14:35 | 30.10261 | 31.39801 | 370 ft | 35 kts | 226° |
| 2026-04-28 14:35 | 30.10073 | 31.39666 | 375 ft | 30 kts | 153° |
| 2026-04-28 14:35 | 30.10009 | 31.39866 | 384 ft | 27 kts | 62° |
| 2026-04-28 14:36 | 30.10174 | 31.40088 | 386 ft | 61 kts | 47° |
| 2026-04-28 14:36 | 30.10616 | 31.40662 | 386 ft | 126 kts | 53° |
| 2026-04-28 14:36 | 30.11338 | 31.41547 | 418 ft | 172 kts | 38° |
| 2026-04-28 14:36 | 30.12269 | 31.42498 | 779 ft | 185 kts | 29° |
| 2026-04-28 14:37 | 30.13471 | 31.43020 | 1234 ft | 189 kts | 2° |
| 2026-04-28 14:37 | 30.14770 | 31.42826 | 1734 ft | 190 kts | 336° |
| 2026-04-28 14:37 | 30.15799 | 31.41992 | 2362 ft | 181 kts | 310° |
| 2026-04-28 14:37 | 30.16391 | 31.40730 | 2636 ft | 191 kts | 287° |
| 2026-04-28 14:38 | 30.16486 | 31.39189 | 2886 ft | 202 kts | 264° |
| 2026-04-28 14:38 | 30.16051 | 31.37715 | 3462 ft | 197 kts | 242° |
| 2026-04-28 14:38 | 30.15468 | 31.36838 | 3762 ft | 186 kts | 228° |